This is the latest recevied weather packets stored in our database for station/object LEMD. If no packets are shown the sender has not sent any weather packets the latest 10 day(s).
| Time | Temp. | Humidity | Pressure | Rain* | Wind** | Luminosity | Snow |
|---|---|---|---|---|---|---|---|
| 1777302905 | 26.11° C | 22% | 1015 hPa | - | - | - | - |
| 1777300204 | 26.11° C | 25% | 1015 hPa | - | - | - | - |
| 1777299304 | 26.11° C | 25% | 1015 hPa | - | - | - | - |
| 1777296605 | 25° C | 33% | 1016 hPa | - | - | - | - |
| 1777295704 | 25° C | 33% | 1016 hPa | - | - | - | - |
| 1777293904 | 23.89° C | 31% | 1017 hPa | - | - | - | - |
| 1777293004 | 22.78° C | 33% | 1017 hPa | - | - | - | - |
| 1777289405 | 22.22° C | 37% | 1018 hPa | - | - | - | - |
| 1777288504 | 22.22° C | 37% | 1018 hPa | - | - | - | - |
| 1777286704 | 22.22° C | 35% | 1018 hPa | - | - | - | - |
| 1777281303 | 20° C | 56% | 1019 hPa | - | - | - | - |
| 1777278604 | 16.11° C | 72% | 1019 hPa | - | - | - | - |
| 1777275004 | 13.89° C | 87% | 1019 hPa | - | - | - | - |
| 1777274105 | 13.89° C | 87% | 1019 hPa | - | - | - | - |
| 1777273204 | 12.22° C | 100% | 1018 hPa | - | - | - | - |
| 1777272304 | 12.22° C | 100% | 1018 hPa | - | - | - | - |
| 1777271404 | 12.22° C | 100% | 1018 hPa | - | - | - | - |
| 1777267804 | 12.22° C | 100% | 1018 hPa | - | - | - | - |
| 1777266005 | 12.78° C | 87% | 1018 hPa | - | - | - | - |
| 1777263303 | 13.89° C | 82% | 1018 hPa | - | - | - | - |
| 1777260604 | 16.11° C | 67% | 1018 hPa | - | - | - | - |
| 1777259704 | 16.11° C | 67% | 1018 hPa | - | - | - | - |
| 1777231805 | 22.22° C | 46% | 1016 hPa | - | - | - | - |
| 1777216504 | 25° C | 33% | 1017 hPa | - | - | - | - |
| 1777203004 | 22.22° C | 46% | 1019 hPa | - | - | - | - |
* Rain since midnight (hover to see other rain measurements)
** Current wind speed in m/s (hover to see current wind gust speed)